Time;durP1;ratioP1;P1;durP2;ratioP2;P2;SDS_P1;SDS_P2;PMS_P1;PMS_P2;Temp;Humidity;BMP_temperature;BMP_pressure;BME280_temperature;BME280_humidity;BME280_pressure;Samples;Min_cycle;Max_cycle;Signal;HPM_P1;HPM_P2
2023/05/19 00:02:17;;;;;;;5.47;3.03;;;;;;;;;;6282200;22;20303;-83
2023/05/19 00:04:43;;;;;;;7.38;2.78;;;;;;;;;;6307169;22;20448;-83
2023/05/19 00:07:13;;;;;;;6.07;3.40;;;;;;;;;;6307277;22;20361;-83
2023/05/19 00:09:39;;;;;;;5.38;2.85;;;;;;;;;;6307055;22;20019;-84
2023/05/19 00:12:05;;;;;;;7.70;3.97;;;;;;;;;;6281412;22;20026;-84
2023/05/19 00:14:31;;;;;;;3.78;3.08;;;;;;;;;;6281600;22;20019;-84
2023/05/19 00:17:00;;;;;;;7.75;3.53;;;;;;;;;;6307444;22;20022;-84
2023/05/19 00:19:30;;;;;;;7.95;3.55;;;;;;;;;;6282032;22;20445;-83
2023/05/19 00:21:57;;;;;;;9.50;4.28;;;;;;;;;;6283383;22;20015;-84
2023/05/19 00:24:23;;;;;;;6.45;3.72;;;;;;;;;;6307267;22;20019;-84
2023/05/19 00:26:49;;;;;;;4.75;3.30;;;;;;;;;;6281376;22;20017;-83
2023/05/19 00:29:17;;;;;;;6.78;3.67;;;;;;;;;;6281719;22;20073;-83
2023/05/19 00:31:43;;;;;;;4.43;3.50;;;;;;;;;;6281831;22;20015;-83
2023/05/19 00:34:09;;;;;;;5.38;3.08;;;;;;;;;;6281163;22;20073;-83
2023/05/19 00:36:35;;;;;;;8.65;3.70;;;;;;;;;;6307938;22;20372;-83
2023/05/19 00:39:01;;;;;;;7.78;4.05;;;;;;;;;;6281559;22;20019;-83
2023/05/19 00:41:28;;;;;;;5.90;3.85;;;;;;;;;;6306518;22;20020;-84
2023/05/19 00:43:54;;;;;;;6.32;3.78;;;;;;;;;;6280920;22;20023;-83
2023/05/19 00:46:21;;;;;;;6.60;3.67;;;;;;;;;;6306854;22;20015;-83
2023/05/19 00:48:47;;;;;;;4.18;3.20;;;;;;;;;;6306786;22;20520;-83
2023/05/19 00:51:15;;;;;;;7.72;3.60;;;;;;;;;;6307646;22;20426;-83
2023/05/19 00:53:42;;;;;;;7.65;4.18;;;;;;;;;;6280743;22;20103;-83
2023/05/19 00:56:08;;;;;;;6.07;3.58;;;;;;;;;;6307152;22;20019;-83
2023/05/19 00:58:35;;;;;;;5.53;3.60;;;;;;;;;;6306747;22;20011;-83
2023/05/19 01:01:02;;;;;;;7.72;4.35;;;;;;;;;;6280707;22;20340;-83
2023/05/19 01:03:33;;;;;;;9.20;4.35;;;;;;;;;;6281030;22;20434;-83
2023/05/19 01:06:03;;;;;;;7.30;4.32;;;;;;;;;;6280972;22;20019;-83
2023/05/19 01:08:31;;;;;;;5.53;3.88;;;;;;;;;;6307806;22;20080;-84
2023/05/19 01:10:57;;;;;;;6.68;4.57;;;;;;;;;;6280686;22;20022;-83
2023/05/19 01:13:24;;;;;;;7.70;3.95;;;;;;;;;;6307699;22;20060;-84
2023/05/19 01:16:00;;;;;;;11.18;5.03;;;;;;;;;;6306633;22;20019;-83
2023/05/19 01:18:32;;;;;;;8.05;4.05;;;;;;;;;;6281954;22;20051;-83
2023/05/19 01:21:09;;;;;;;4.43;3.53;;;;;;;;;;6306112;22;20019;-83
2023/05/19 01:23:46;;;;;;;5.13;4.20;;;;;;;;;;6281681;22;20015;-83
2023/05/19 01:26:15;;;;;;;7.07;3.97;;;;;;;;;;6306611;22;20019;-83
2023/05/19 01:29:08;;;;;;;5.57;3.78;;;;;;;;;;6280422;22;20030;-83
2023/05/19 01:31:36;;;;;;;7.90;4.65;;;;;;;;;;6302059;22;20011;-83
2023/05/19 01:34:03;;;;;;;10.32;4.63;;;;;;;;;;6306526;22;20077;-83
2023/05/19 01:36:31;;;;;;;6.10;4.40;;;;;;;;;;6280451;22;20020;-84
2023/05/19 01:38:58;;;;;;;6.10;4.40;;;;;;;;;;6306455;22;20015;-84
2023/05/19 01:41:24;;;;;;;4.63;3.53;;;;;;;;;;6280758;22;20074;-84
2023/05/19 01:43:53;;;;;;;6.70;4.28;;;;;;;;;;6281287;22;20065;-84
2023/05/19 01:46:19;;;;;;;7.03;4.45;;;;;;;;;;6306912;22;20019;-83
2023/05/19 01:48:46;;;;;;;6.75;4.45;;;;;;;;;;6306914;22;20019;-84
2023/05/19 01:51:12;;;;;;;6.53;4.20;;;;;;;;;;6307476;22;20085;-84
2023/05/19 01:53:38;;;;;;;5.35;4.15;;;;;;;;;;6307401;22;20023;-84
2023/05/19 01:56:05;;;;;;;7.57;4.90;;;;;;;;;;6280904;22;20015;-84
2023/05/19 01:58:31;;;;;;;6.15;4.53;;;;;;;;;;6306715;22;20019;-84
2023/05/19 02:01:15;;;;;;;9.68;4.85;;;;;;;;;;6306748;22;20019;-83
2023/05/19 02:03:44;;;;;;;6.93;4.50;;;;;;;;;;6306063;22;20019;-84
2023/05/19 02:06:29;;;;;;;8.05;4.82;;;;;;;;;;6280505;22;20453;-84
2023/05/19 02:08:55;;;;;;;;;;;;;;;;;;6281103;22;20026;-84
2023/05/19 02:11:31;;;;;;;10.13;5.13;;;;;;;;;;6306602;22;19914;-84
2023/05/19 02:14:00;;;;;;;6.63;4.80;;;;;;;;;;6280653;22;20027;-84
2023/05/19 02:16:27;;;;;;;9.55;4.88;;;;;;;;;;6306881;22;20015;-84
2023/05/19 02:18:55;;;;;;;6.57;5.10;;;;;;;;;;6308233;22;20022;-84
2023/05/19 02:21:21;;;;;;;13.52;5.47;;;;;;;;;;6283505;22;20372;-84
2023/05/19 02:23:47;;;;;;;8.45;5.78;;;;;;;;;;6310696;22;20057;-84
2023/05/19 02:26:13;;;;;;;8.32;5.53;;;;;;;;;;6282296;22;20094;-84
2023/05/19 02:28:39;;;;;;;5.45;4.82;;;;;;;;;;6308162;22;20015;-84
2023/05/19 02:31:07;;;;;;;6.72;5.38;;;;;;;;;;6309190;22;20070;-84
2023/05/19 02:33:33;;;;;;;9.18;5.45;;;;;;;;;;6308482;22;20449;-84
2023/05/19 02:36:00;;;;;;;10.68;5.55;;;;;;;;;;6283292;22;20015;-84
2023/05/19 02:38:26;;;;;;;8.25;4.95;;;;;;;;;;6282850;22;20015;-84
2023/05/19 02:40:52;;;;;;;7.82;4.65;;;;;;;;;;6282377;22;20017;-84
2023/05/19 02:43:18;;;;;;;12.57;6.53;;;;;;;;;;6307939;22;20460;-83
2023/05/19 02:45:45;;;;;;;7.82;5.28;;;;;;;;;;6307996;22;20094;-83
2023/05/19 02:48:11;;;;;;;6.60;5.55;;;;;;;;;;6282264;22;20058;-83
2023/05/19 02:50:37;;;;;;;8.70;5.68;;;;;;;;;;6307900;22;20013;-84
2023/05/19 02:53:03;;;;;;;10.32;5.57;;;;;;;;;;6308916;22;20425;-83
2023/05/19 02:55:29;;;;;;;8.55;6.25;;;;;;;;;;6283196;22;20364;-84
2023/05/19 02:57:55;;;;;;;8.55;5.78;;;;;;;;;;6307969;22;20372;-84
2023/05/19 03:00:22;;;;;;;7.30;5.15;;;;;;;;;;6307918;22;20023;-83
2023/05/19 03:02:48;;;;;;;9.32;4.93;;;;;;;;;;6281770;22;20109;-84
2023/05/19 03:05:14;;;;;;;8.00;5.78;;;;;;;;;;6282187;22;20049;-83
2023/05/19 03:07:40;;;;;;;8.43;6.03;;;;;;;;;;6308903;22;20061;-84
2023/05/19 03:10:07;;;;;;;8.90;5.88;;;;;;;;;;6283048;22;20368;-83
2023/05/19 03:12:33;;;;;;;10.80;6.82;;;;;;;;;;6308139;22;20073;-84
2023/05/19 03:15:00;;;;;;;10.52;5.88;;;;;;;;;;6281919;22;20388;-83
2023/05/19 03:17:27;;;;;;;11.13;6.18;;;;;;;;;;6307808;22;20441;-83
2023/05/19 03:19:53;;;;;;;8.07;6.40;;;;;;;;;;6281960;22;20020;-83
2023/05/19 03:22:20;;;;;;;11.77;5.80;;;;;;;;;;6307701;22;20078;-83
2023/05/19 03:24:48;;;;;;;10.60;6.38;;;;;;;;;;6281780;22;20019;-83
2023/05/19 03:27:15;;;;;;;9.20;6.40;;;;;;;;;;6307379;22;20015;-83
2023/05/19 03:29:41;;;;;;;8.23;6.30;;;;;;;;;;6308579;22;20065;-84
2023/05/19 03:32:07;;;;;;;8.40;6.30;;;;;;;;;;6282819;22;20021;-83
2023/05/19 03:34:34;;;;;;;6.65;5.90;;;;;;;;;;6307624;22;20019;-83
2023/05/19 03:37:00;;;;;;;11.20;6.50;;;;;;;;;;6282089;22;20015;-83
2023/05/19 03:39:26;;;;;;;11.73;7.05;;;;;;;;;;6307472;22;20015;-83
2023/05/19 03:41:52;;;;;;;10.60;6.75;;;;;;;;;;6281467;22;20022;-83
2023/05/19 03:44:18;;;;;;;10.73;6.57;;;;;;;;;;6307411;22;20049;-83
2023/05/19 03:46:44;;;;;;;9.43;6.25;;;;;;;;;;6281805;22;20015;-83
2023/05/19 03:49:10;;;;;;;11.00;6.68;;;;;;;;;;6281670;22;20069;-83
2023/05/19 03:51:36;;;;;;;8.93;5.97;;;;;;;;;;6307335;22;20393;-84
2023/05/19 03:54:03;;;;;;;9.82;6.80;;;;;;;;;;6282188;22;20023;-83
2023/05/19 03:56:29;;;;;;;9.57;6.57;;;;;;;;;;6281598;22;20372;-84
2023/05/19 03:58:55;;;;;;;10.77;6.40;;;;;;;;;;6308341;22;20026;-83
2023/05/19 04:01:22;;;;;;;8.07;5.35;;;;;;;;;;6307876;22;20015;-83
2023/05/19 04:03:48;;;;;;;5.93;5.25;;;;;;;;;;6309034;22;20073;-84
2023/05/19 04:06:14;;;;;;;10.80;7.13;;;;;;;;;;6307292;22;20030;-84
2023/05/19 04:08:40;;;;;;;8.13;6.25;;;;;;;;;;6281627;22;20011;-84
2023/05/19 04:11:06;;;;;;;7.22;5.78;;;;;;;;;;6307106;22;20333;-84
2023/05/19 04:13:33;;;;;;;7.65;5.68;;;;;;;;;;6308186;22;20112;-83
2023/05/19 04:15:59;;;;;;;8.95;6.60;;;;;;;;;;6280872;22;20019;-83
2023/05/19 04:18:25;;;;;;;9.73;6.93;;;;;;;;;;6307557;22;20023;-84
2023/05/19 04:20:52;;;;;;;10.30;6.70;;;;;;;;;;6307031;22;20019;-83
2023/05/19 04:23:18;;;;;;;10.73;6.28;;;;;;;;;;6280763;22;20506;-83
2023/05/19 04:25:44;;;;;;;10.80;5.97;;;;;;;;;;6281738;22;20322;-83
2023/05/19 04:28:10;;;;;;;12.48;7.82;;;;;;;;;;6281412;22;20046;-83
2023/05/19 04:30:37;;;;;;;10.07;7.03;;;;;;;;;;6307216;22;20022;-83
2023/05/19 04:33:03;;;;;;;8.35;6.43;;;;;;;;;;6281116;22;20019;-83
2023/05/19 04:35:29;;;;;;;11.20;7.43;;;;;;;;;;6281172;22;20015;-84
2023/05/19 04:37:55;;;;;;;11.68;7.72;;;;;;;;;;6307825;22;20380;-83
2023/05/19 04:40:22;;;;;;;9.23;6.88;;;;;;;;;;6306677;22;20019;-84
2023/05/19 04:42:51;;;;;;;8.50;6.35;;;;;;;;;;6307215;22;20022;-84
2023/05/19 04:45:17;;;;;;;7.93;6.80;;;;;;;;;;6281429;22;20332;-84
2023/05/19 04:47:45;;;;;;;10.05;7.80;;;;;;;;;;6307554;22;20012;-84
2023/05/19 04:50:11;;;;;;;8.90;7.07;;;;;;;;;;6305949;22;20015;-84
2023/05/19 04:52:37;;;;;;;10.88;7.03;;;;;;;;;;6307546;22;20050;-83
2023/05/19 04:55:04;;;;;;;8.02;7.22;;;;;;;;;;6280893;22;20059;-83
2023/05/19 04:57:30;;;;;;;10.75;7.63;;;;;;;;;;6308278;22;20090;-83
2023/05/19 04:59:58;;;;;;;11.35;7.82;;;;;;;;;;6306782;22;20011;-83
2023/05/19 05:02:26;;;;;;;10.82;7.38;;;;;;;;;;6281036;22;20094;-83
2023/05/19 05:04:53;;;;;;;17.60;8.82;;;;;;;;;;6306777;22;20329;-83
2023/05/19 05:07:20;;;;;;;12.38;8.45;;;;;;;;;;6308118;22;20016;-83
2023/05/19 05:09:47;;;;;;;11.80;7.88;;;;;;;;;;6306179;22;20031;-84
2023/05/19 05:12:14;;;;;;;11.27;8.32;;;;;;;;;;6306717;22;20019;-84
2023/05/19 05:14:40;;;;;;;11.20;8.30;;;;;;;;;;6306463;22;20091;-83
2023/05/19 05:17:06;;;;;;;12.68;8.43;;;;;;;;;;6281853;22;20015;-83
2023/05/19 05:19:33;;;;;;;9.07;7.53;;;;;;;;;;6308217;22;20019;-83
2023/05/19 05:21:59;;;;;;;12.00;8.48;;;;;;;;;;6281242;22;20015;-83
2023/05/19 05:24:26;;;;;;;11.50;8.73;;;;;;;;;;6306825;22;20019;-83
2023/05/19 05:26:52;;;;;;;11.73;8.27;;;;;;;;;;6308039;22;20015;-84
2023/05/19 05:29:19;;;;;;;11.18;8.25;;;;;;;;;;6280460;22;20019;-83
2023/05/19 05:31:45;;;;;;;9.52;8.05;;;;;;;;;;6306462;22;20019;-83
2023/05/19 05:34:11;;;;;;;10.43;7.90;;;;;;;;;;6306653;22;20045;-84
2023/05/19 05:36:37;;;;;;;11.45;7.28;;;;;;;;;;6306603;22;20022;-83
2023/05/19 05:39:04;;;;;;;11.32;8.23;;;;;;;;;;6306543;22;20054;-83
2023/05/19 05:41:34;;;;;;;9.88;7.50;;;;;;;;;;6306631;22;20015;-83
2023/05/19 05:44:03;;;;;;;11.77;7.60;;;;;;;;;;6308775;22;20322;-84
2023/05/19 05:46:29;;;;;;;10.50;7.68;;;;;;;;;;6280773;22;20061;-84
2023/05/19 05:48:55;;;;;;;9.13;8.23;;;;;;;;;;6306507;22;20015;-83
2023/05/19 05:51:22;;;;;;;9.75;7.40;;;;;;;;;;6307924;22;20051;-83
2023/05/19 05:53:53;;;;;;;7.50;5.88;;;;;;;;;;6309415;22;20054;-83
2023/05/19 05:56:19;;;;;;;11.38;6.55;;;;;;;;;;6308734;22;20453;-84
2023/05/19 05:58:45;;;;;;;13.32;6.20;;;;;;;;;;6282605;22;20361;-83
2023/05/19 06:01:11;;;;;;;9.00;7.35;;;;;;;;;;6309199;22;20019;-83
2023/05/19 06:03:43;;;;;;;9.07;6.50;;;;;;;;;;6309729;22;20023;-83
2023/05/19 06:06:10;;;;;;;11.63;6.60;;;;;;;;;;6309532;22;20426;-83
2023/05/19 06:08:36;;;;;;;7.95;5.38;;;;;;;;;;6282808;22;20016;-84
2023/05/19 06:11:09;;;;;;;8.15;6.13;;;;;;;;;;6283331;22;20019;-84
2023/05/19 06:13:35;;;;;;;7.85;5.68;;;;;;;;;;6308744;22;20023;-84
2023/05/19 06:16:01;;;;;;;6.47;5.82;;;;;;;;;;6282541;22;20026;-84
2023/05/19 06:18:27;;;;;;;9.45;5.65;;;;;;;;;;6308335;22;20019;-84
2023/05/19 06:20:54;;;;;;;9.35;5.97;;;;;;;;;;6283007;22;20317;-84
2023/05/19 06:23:20;;;;;;;6.25;5.53;;;;;;;;;;6282690;22;20023;-84
2023/05/19 06:25:46;;;;;;;8.80;5.43;;;;;;;;;;6308348;22;20041;-85
2023/05/19 06:28:12;;;;;;;6.45;5.45;;;;;;;;;;6282358;22;20020;-84
2023/05/19 06:30:38;;;;;;;6.65;5.80;;;;;;;;;;6308054;22;20023;-84
2023/05/19 06:33:14;;;;;;;6.22;5.63;;;;;;;;;;6308127;22;20441;-84
2023/05/19 06:35:40;;;;;;;9.75;5.85;;;;;;;;;;6282732;22;20018;-84
2023/05/19 06:38:06;;;;;;;8.80;5.65;;;;;;;;;;6282684;22;20019;-84
2023/05/19 06:40:32;;;;;;;11.27;6.03;;;;;;;;;;6283455;22;20019;-84
2023/05/19 06:42:58;;;;;;;6.22;5.03;;;;;;;;;;6283318;22;20073;-84
2023/05/19 06:45:24;;;;;;;9.27;5.00;;;;;;;;;;6307965;22;20015;-84
2023/05/19 06:47:51;;;;;;;8.55;4.97;;;;;;;;;;6282374;22;20019;-84
2023/05/19 06:50:17;;;;;;;9.75;4.38;;;;;;;;;;6283308;22;20054;-83
2023/05/19 06:52:43;;;;;;;6.13;4.53;;;;;;;;;;6307943;22;20053;-83
2023/05/19 06:55:09;;;;;;;6.38;3.92;;;;;;;;;;6307822;22;20015;-84
2023/05/19 06:57:35;;;;;;;6.50;4.25;;;;;;;;;;6310139;22;20048;-83
2023/05/19 07:00:02;;;;;;;6.47;4.35;;;;;;;;;;6282112;22;20076;-84
2023/05/19 07:02:28;;;;;;;7.70;4.50;;;;;;;;;;6309073;22;20015;-83
2023/05/19 07:04:56;;;;;;;6.65;3.90;;;;;;;;;;6307765;22;20019;-83
2023/05/19 07:07:22;;;;;;;9.23;3.80;;;;;;;;;;6309251;22;20019;-83
2023/05/19 07:09:48;;;;;;;5.75;3.15;;;;;;;;;;6309810;22;20023;-83
2023/05/19 07:12:14;;;;;;;3.50;2.75;;;;;;;;;;6307473;22;20090;-83
2023/05/19 07:14:40;;;;;;;6.88;3.58;;;;;;;;;;6282389;22;20026;-83
2023/05/19 07:17:06;;;;;;;9.48;3.33;;;;;;;;;;6307750;22;20033;-82
2023/05/19 07:19:32;;;;;;;7.35;3.78;;;;;;;;;;6307621;22;20011;-83
2023/05/19 07:21:58;;;;;;;5.22;2.92;;;;;;;;;;6281813;22;20015;-83
2023/05/19 07:24:26;;;;;;;5.90;2.55;;;;;;;;;;6309130;22;20064;-84
2023/05/19 07:26:52;;;;;;;6.28;2.30;;;;;;;;;;6308585;22;20011;-83
2023/05/19 07:29:18;;;;;;;6.35;2.42;;;;;;;;;;6308397;22;20125;-83
2023/05/19 07:31:44;;;;;;;6.20;2.13;;;;;;;;;;6281650;22;20422;-84
2023/05/19 07:34:10;;;;;;;5.00;2.10;;;;;;;;;;6282943;22;20033;-84
2023/05/19 07:36:37;;;;;;;8.57;2.30;;;;;;;;;;6282034;22;20068;-84
2023/05/19 07:39:03;;;;;;;5.07;2.03;;;;;;;;;;6281636;22;20341;-84
2023/05/19 07:41:29;;;;;;;3.92;1.58;;;;;;;;;;6307499;22;20149;-84
2023/05/19 07:43:55;;;;;;;6.53;2.00;;;;;;;;;;6281742;22;20022;-83
2023/05/19 07:46:21;;;;;;;4.68;1.80;;;;;;;;;;6281621;22;20031;-84
2023/05/19 07:48:47;;;;;;;4.13;2.40;;;;;;;;;;6307430;22;20015;-84
2023/05/19 07:51:14;;;;;;;4.35;1.88;;;;;;;;;;6307184;22;20080;-85
2023/05/19 07:53:40;;;;;;;2.92;1.25;;;;;;;;;;6281822;22;20050;-84
2023/05/19 07:56:06;;;;;;;5.10;1.58;;;;;;;;;;6308070;22;20034;-85
2023/05/19 07:58:33;;;;;;;3.42;1.58;;;;;;;;;;6307187;22;20098;-85
2023/05/19 08:00:59;;;;;;;5.43;1.50;;;;;;;;;;6308181;22;20022;-84
2023/05/19 08:03:25;;;;;;;4.70;1.08;;;;;;;;;;6307084;22;20022;-84
2023/05/19 08:05:51;;;;;;;5.93;1.27;;;;;;;;;;6307271;22;20019;-85
2023/05/19 08:08:27;;;;;;;3.55;1.00;;;;;;;;;;6281458;22;20015;-85
2023/05/19 08:10:54;;;;;;;4.93;1.13;;;;;;;;;;6307209;22;20018;-84
2023/05/19 08:13:20;;;;;;;3.50;0.88;;;;;;;;;;6281493;22;20054;-85
2023/05/19 08:15:46;;;;;;;4.10;1.30;;;;;;;;;;6307518;22;20455;-84
2023/05/19 08:18:12;;;;;;;4.30;0.90;;;;;;;;;;6280986;22;20026;-84
2023/05/19 08:20:39;;;;;;;4.20;1.02;;;;;;;;;;6308188;22;20090;-85
2023/05/19 08:23:05;;;;;;;4.97;1.00;;;;;;;;;;6307096;22;20015;-84
2023/05/19 08:25:31;;;;;;;2.58;0.90;;;;;;;;;;6307045;22;20448;-84
2023/05/19 08:27:57;;;;;;;4.55;0.85;;;;;;;;;;6307438;22;20065;-84
2023/05/19 08:30:23;;;;;;;6.68;0.65;;;;;;;;;;6281118;22;20016;-84
2023/05/19 08:32:49;;;;;;;3.33;0.70;;;;;;;;;;6307078;22;20393;-84
2023/05/19 08:35:15;;;;;;;3.38;0.70;;;;;;;;;;6281327;22;20034;-84
2023/05/19 08:37:41;;;;;;;3.05;0.70;;;;;;;;;;6281177;22;20023;-84
2023/05/19 08:40:10;;;;;;;4.03;0.80;;;;;;;;;;6307022;22;20519;-84
2023/05/19 08:42:37;;;;;;;6.82;0.60;;;;;;;;;;6309109;22;20334;-84
2023/05/19 08:45:03;;;;;;;5.93;0.70;;;;;;;;;;6281802;22;20050;-84
2023/05/19 08:47:29;;;;;;;2.83;0.60;;;;;;;;;;6281251;22;20512;-84
2023/05/19 08:50:06;;;;;;;5.10;1.05;;;;;;;;;;6307762;22;20090;-84
2023/05/19 08:52:44;;;;;;;4.25;0.85;;;;;;;;;;6307931;22;20011;-84
2023/05/19 08:55:24;;;;;;;4.35;0.88;;;;;;;;;;6307775;22;20093;-84
2023/05/19 08:57:51;;;;;;;4.20;0.60;;;;;;;;;;6307208;22;20385;-84
2023/05/19 09:00:19;;;;;;;2.45;0.70;;;;;;;;;;6306376;22;20019;-84
2023/05/19 09:02:47;;;;;;;2.45;0.63;;;;;;;;;;6305969;22;20055;-83
2023/05/19 09:05:15;;;;;;;3.45;0.63;;;;;;;;;;6308304;22;20024;-83
2023/05/19 09:07:42;;;;;;;3.70;0.68;;;;;;;;;;6306676;22;20076;-84
2023/05/19 09:10:13;;;;;;;2.83;0.73;;;;;;;;;;6306625;22;20441;-84
2023/05/19 09:12:39;;;;;;;4.07;0.60;;;;;;;;;;6307494;22;20064;-84
2023/05/19 09:15:07;;;;;;;3.40;0.75;;;;;;;;;;6306872;22;20058;-85
2023/05/19 09:17:33;;;;;;;6.65;0.98;;;;;;;;;;6306694;22;20065;-84
2023/05/19 09:20:03;;;;;;;4.88;0.55;;;;;;;;;;6306719;22;20019;-84
2023/05/19 09:22:29;;;;;;;6.53;0.70;;;;;;;;;;6308216;22;20019;-84
2023/05/19 09:24:56;;;;;;;2.55;0.50;;;;;;;;;;6280622;22;20019;-84
2023/05/19 09:27:22;;;;;;;6.22;0.70;;;;;;;;;;6306994;22;20034;-84
2023/05/19 09:29:49;;;;;;;6.65;0.52;;;;;;;;;;6306685;22;20113;-84
2023/05/19 09:32:27;;;;;;;4.07;0.85;;;;;;;;;;6281596;22;20037;-85
2023/05/19 09:34:54;;;;;;;2.70;0.50;;;;;;;;;;6307336;22;20022;-84
2023/05/19 09:37:24;;;;;;;3.17;0.55;;;;;;;;;;6307609;22;20426;-84
2023/05/19 09:39:51;;;;;;;3.08;0.88;;;;;;;;;;6308034;22;20015;-85
2023/05/19 09:42:25;;;;;;;2.47;0.50;;;;;;;;;;6281056;22;20019;-84
2023/05/19 09:44:58;;;;;;;2.35;0.60;;;;;;;;;;6307711;22;20023;-85
2023/05/19 09:47:26;;;;;;;4.57;0.70;;;;;;;;;;6307645;22;20068;-84
2023/05/19 09:49:53;;;;;;;7.50;0.90;;;;;;;;;;6306408;22;20022;-85
2023/05/19 09:52:20;;;;;;;3.92;0.77;;;;;;;;;;6307847;22;20094;-84
2023/05/19 09:54:50;;;;;;;2.83;0.80;;;;;;;;;;6280878;22;20015;-84
2023/05/19 09:57:16;;;;;;;3.38;0.50;;;;;;;;;;6306947;22;20543;-85
2023/05/19 09:59:43;;;;;;;2.45;0.50;;;;;;;;;;6306530;22;20069;-85
2023/05/19 10:02:14;;;;;;;3.55;0.50;;;;;;;;;;6307249;22;20058;-84
2023/05/19 10:04:41;;;;;;;2.85;0.57;;;;;;;;;;6307474;22;20045;-85
2023/05/19 10:07:08;;;;;;;3.97;0.60;;;;;;;;;;6308112;22;20019;-85
2023/05/19 10:09:35;;;;;;;3.70;0.70;;;;;;;;;;6306477;22;20469;-84
2023/05/19 10:12:02;;;;;;;1.85;0.35;;;;;;;;;;6307372;22;20016;-84
2023/05/19 10:14:28;;;;;;;5.78;0.60;;;;;;;;;;6280649;22;20337;-85
2023/05/19 10:16:55;;;;;;;2.53;0.50;;;;;;;;;;6306409;22;20464;-85
2023/05/19 10:19:22;;;;;;;2.78;0.40;;;;;;;;;;6280700;22;20114;-85
2023/05/19 10:21:48;;;;;;;5.63;0.50;;;;;;;;;;6306461;22;20046;-85
2023/05/19 10:24:15;;;;;;;3.92;0.75;;;;;;;;;;6280628;22;20157;-84
2023/05/19 10:26:42;;;;;;;4.70;0.45;;;;;;;;;;6306363;22;20015;-84
2023/05/19 10:29:10;;;;;;;3.97;0.50;;;;;;;;;;6307420;22;20016;-85
2023/05/19 10:31:36;;;;;;;3.70;0.50;;;;;;;;;;6280479;22;20015;-85
2023/05/19 10:34:02;;;;;;;3.20;0.40;;;;;;;;;;6280695;22;20051;-85
2023/05/19 10:36:52;;;;;;;2.97;0.43;;;;;;;;;;6306481;22;20019;-85
2023/05/19 10:39:18;;;;;;;2.20;0.40;;;;;;;;;;6297166;22;20460;-85
2023/05/19 10:41:44;;;;;;;2.35;0.57;;;;;;;;;;6308135;22;20019;-85
2023/05/19 10:44:28;;;;;;;3.33;0.50;;;;;;;;;;6283376;22;20068;-85
2023/05/19 10:46:54;;;;;;;2.15;0.50;;;;;;;;;;6309295;22;20015;-85
2023/05/19 10:49:21;;;;;;;2.53;0.43;;;;;;;;;;6309710;22;20016;-85
2023/05/19 10:51:47;;;;;;;3.95;0.50;;;;;;;;;;6308013;22;20015;-85
2023/05/19 10:54:15;;;;;;;4.82;0.40;;;;;;;;;;6282205;22;20093;-84
2023/05/19 10:56:45;;;;;;;2.65;0.50;;;;;;;;;;6308009;22;20402;-85
2023/05/19 10:59:32;;;;;;;3.83;0.60;;;;;;;;;;6308473;22;20330;-85
2023/05/19 11:02:02;;;;;;;4.40;0.40;;;;;;;;;;6307649;22;20365;-84
2023/05/19 11:04:49;;;;;;;1.45;0.38;;;;;;;;;;6308392;22;20027;-85
2023/05/19 11:07:20;;;;;;;2.88;0.32;;;;;;;;;;6307869;22;20016;-85
2023/05/19 11:09:50;;;;;;;3.25;0.30;;;;;;;;;;6308272;22;20038;-85
2023/05/19 11:12:20;;;;;;;1.90;0.38;;;;;;;;;;6282028;22;20019;-85
2023/05/19 11:14:47;;;;;;;2.13;0.70;;;;;;;;;;6308293;22;20015;-85
2023/05/19 11:17:14;;;;;;;2.88;0.60;;;;;;;;;;6282973;22;20022;-85
2023/05/19 11:19:51;;;;;;;3.65;0.68;;;;;;;;;;6307430;22;20544;-84
2023/05/19 11:22:17;;;;;;;2.60;0.43;;;;;;;;;;6308867;22;20019;-84
2023/05/19 11:24:52;;;;;;;4.38;0.95;;;;;;;;;;6309245;22;20473;-84
2023/05/19 11:27:24;;;;;;;2.38;0.40;;;;;;;;;;6282365;22;20015;-84
2023/05/19 11:29:51;;;;;;;1.90;0.55;;;;;;;;;;6307663;22;20023;-84
2023/05/19 11:32:17;;;;;;;2.72;0.40;;;;;;;;;;6308031;22;20019;-84
2023/05/19 11:34:44;;;;;;;2.58;0.50;;;;;;;;;;6307768;22;20015;-84
2023/05/19 11:37:11;;;;;;;3.88;0.65;;;;;;;;;;6307609;22;20518;-84
2023/05/19 11:39:37;;;;;;;2.55;0.70;;;;;;;;;;6308631;22;20103;-84
2023/05/19 11:42:03;;;;;;;3.33;0.43;;;;;;;;;;6307617;22;20019;-84
2023/05/19 11:44:29;;;;;;;2.47;0.47;;;;;;;;;;6307855;22;20026;-84
2023/05/19 11:46:55;;;;;;;3.72;0.63;;;;;;;;;;6307588;22;20023;-85
2023/05/19 11:49:21;;;;;;;2.38;0.60;;;;;;;;;;6282006;22;20015;-84
2023/05/19 11:51:47;;;;;;;2.65;0.47;;;;;;;;;;6307704;22;20098;-84
2023/05/19 11:54:13;;;;;;;4.68;0.60;;;;;;;;;;6307426;22;20046;-84
2023/05/19 11:56:40;;;;;;;2.38;0.40;;;;;;;;;;6307411;22;20018;-84
2023/05/19 11:59:06;;;;;;;2.47;0.50;;;;;;;;;;6307368;22;20547;-83
2023/05/19 12:01:33;;;;;;;1.33;0.40;;;;;;;;;;6307500;22;20011;-83
2023/05/19 12:03:59;;;;;;;2.70;0.50;;;;;;;;;;6308738;22;20027;-84
2023/05/19 12:06:26;;;;;;;2.55;0.50;;;;;;;;;;6307590;22;20011;-84
2023/05/19 12:08:53;;;;;;;1.90;0.50;;;;;;;;;;6308292;22;20069;-84
2023/05/19 12:11:20;;;;;;;2.10;0.45;;;;;;;;;;6307167;22;20099;-84
2023/05/19 12:13:47;;;;;;;3.47;0.60;;;;;;;;;;6308178;22;20019;-84
2023/05/19 12:16:13;;;;;;;2.03;0.50;;;;;;;;;;6308173;22;20413;-84
2023/05/19 12:18:39;;;;;;;1.67;0.40;;;;;;;;;;6308162;22;20019;-85
2023/05/19 12:21:05;;;;;;;2.60;0.50;;;;;;;;;;6308668;22;20015;-84
2023/05/19 12:23:32;;;;;;;3.15;0.40;;;;;;;;;;6307202;22;20052;-84
2023/05/19 12:25:58;;;;;;;3.00;0.50;;;;;;;;;;6280806;22;20015;-84
2023/05/19 12:28:25;;;;;;;3.50;0.55;;;;;;;;;;6307079;22;20117;-84
2023/05/19 12:30:51;;;;;;;3.35;0.40;;;;;;;;;;6307993;22;20025;-84
2023/05/19 12:33:18;;;;;;;2.03;0.57;;;;;;;;;;6307758;22;20353;-84
2023/05/19 12:35:46;;;;;;;3.00;0.40;;;;;;;;;;6306655;22;20023;-84
2023/05/19 12:38:14;;;;;;;4.55;0.40;;;;;;;;;;6282214;22;20426;-84
2023/05/19 12:40:41;;;;;;;4.75;0.70;;;;;;;;;;6306997;22;20133;-84
2023/05/19 12:43:08;;;;;;;3.15;0.60;;;;;;;;;;6307969;22;20029;-83
2023/05/19 12:45:41;;;;;;;2.05;0.52;;;;;;;;;;6281151;22;20341;-83
2023/05/19 12:48:16;;;;;;;2.92;0.50;;;;;;;;;;6282216;22;20434;-83
2023/05/19 12:50:44;;;;;;;3.78;1.30;;;;;;;;;;6307905;22;20334;-83
2023/05/19 12:53:13;;;;;;;3.28;0.65;;;;;;;;;;6308406;22;20023;-83
2023/05/19 12:55:44;;;;;;;2.35;0.40;;;;;;;;;;6306764;22;20022;-83
2023/05/19 12:58:11;;;;;;;2.53;0.50;;;;;;;;;;6306776;22;20022;-84
2023/05/19 13:00:42;;;;;;;2.55;0.55;;;;;;;;;;6306557;22;20019;-83
2023/05/19 13:03:14;;;;;;;2.95;0.50;;;;;;;;;;6308347;22;20019;-83
2023/05/19 13:05:45;;;;;;;5.43;0.65;;;;;;;;;;6307230;22;20109;-83
2023/05/19 13:08:18;;;;;;;1.38;0.30;;;;;;;;;;6306851;22;20019;-83
2023/05/19 13:10:45;;;;;;;2.13;0.40;;;;;;;;;;6306843;22;20011;-83
2023/05/19 13:13:12;;;;;;;3.13;0.40;;;;;;;;;;6306718;22;20337;-83
2023/05/19 13:15:42;;;;;;;4.20;0.63;;;;;;;;;;6307894;22;20019;-83
2023/05/19 13:18:09;;;;;;;2.67;0.73;;;;;;;;;;6307119;22;20068;-83
2023/05/19 13:20:36;;;;;;;2.83;0.60;;;;;;;;;;6308197;22;20091;-83
2023/05/19 13:23:03;;;;;;;2.95;0.50;;;;;;;;;;6306675;22;20094;-83
2023/05/19 13:25:30;;;;;;;1.80;0.80;;;;;;;;;;6307599;22;20448;-83
2023/05/19 13:27:58;;;;;;;5.07;0.40;;;;;;;;;;6307707;22;20015;-83
2023/05/19 13:30:24;;;;;;;5.00;0.70;;;;;;;;;;6306588;22;20012;-83
2023/05/19 13:32:51;;;;;;;3.20;0.65;;;;;;;;;;6306686;22;20394;-83
2023/05/19 13:35:17;;;;;;;2.50;0.47;;;;;;;;;;6307002;22;20047;-83
2023/05/19 13:37:43;;;;;;;2.15;0.40;;;;;;;;;;6306605;22;20019;-83
2023/05/19 13:40:09;;;;;;;1.65;0.50;;;;;;;;;;6306904;22;20016;-83
2023/05/19 13:42:36;;;;;;;2.03;0.50;;;;;;;;;;6308098;22;20026;-82
2023/05/19 13:45:03;;;;;;;3.17;0.50;;;;;;;;;;6308105;22;20015;-83
2023/05/19 13:47:29;;;;;;;1.45;0.40;;;;;;;;;;6306620;22;20016;-83
2023/05/19 13:49:55;;;;;;;1.63;0.60;;;;;;;;;;6308098;22;20019;-82
2023/05/19 13:52:21;;;;;;;3.50;0.40;;;;;;;;;;6306742;22;20068;-83
2023/05/19 13:54:48;;;;;;;2.25;0.35;;;;;;;;;;6307373;22;20034;-83
2023/05/19 13:57:17;;;;;;;1.90;0.50;;;;;;;;;;6280654;22;20076;-83
2023/05/19 13:59:44;;;;;;;2.13;0.40;;;;;;;;;;6307132;22;20448;-83
2023/05/19 14:02:10;;;;;;;3.60;0.43;;;;;;;;;;6306217;22;20015;-83
2023/05/19 14:04:39;;;;;;;2.50;0.70;;;;;;;;;;6307510;22;20314;-83
2023/05/19 14:07:06;;;;;;;2.55;0.38;;;;;;;;;;6307426;22;20023;-84
2023/05/19 14:09:32;;;;;;;3.05;0.40;;;;;;;;;;6306803;22;20011;-83
2023/05/19 14:11:59;;;;;;;3.05;0.50;;;;;;;;;;6307989;22;20015;-83
2023/05/19 14:14:25;;;;;;;5.82;0.60;;;;;;;;;;6309964;22;20112;-83
2023/05/19 14:16:51;;;;;;;4.13;0.60;;;;;;;;;;6308387;22;20031;-82
2023/05/19 14:19:17;;;;;;;1.92;0.47;;;;;;;;;;6282157;22;20022;-82
2023/05/19 14:21:43;;;;;;;3.63;0.57;;;;;;;;;;6310910;22;20011;-82
2023/05/19 14:24:09;;;;;;;2.42;0.50;;;;;;;;;;6310400;22;20045;-82
2023/05/19 14:26:35;;;;;;;1.80;0.40;;;;;;;;;;6282025;22;20057;-82
2023/05/19 14:29:01;;;;;;;2.03;0.30;;;;;;;;;;6308240;22;20023;-83
2023/05/19 14:31:27;;;;;;;2.10;0.40;;;;;;;;;;6282539;22;20334;-82
2023/05/19 14:33:54;;;;;;;1.95;0.50;;;;;;;;;;6282468;22;20015;-82
2023/05/19 14:36:20;;;;;;;1.92;0.32;;;;;;;;;;6308233;22;20080;-83
2023/05/19 14:38:46;;;;;;;3.22;0.50;;;;;;;;;;6283419;22;20034;-82
2023/05/19 14:41:12;;;;;;;3.67;0.55;;;;;;;;;;6308217;22;20023;-83
2023/05/19 14:43:40;;;;;;;2.92;0.50;;;;;;;;;;6308125;22;20019;-83